createdAt,value
2016-12-25T00:00:04.992Z,1016.5
2016-12-25T00:00:31.107Z,1016.52
2016-12-25T00:00:57.234Z,1016.55
2016-12-25T00:01:23.334Z,1016.46
2016-12-25T00:01:49.451Z,1016.56
2016-12-25T00:02:15.572Z,1016.53
2016-12-25T00:02:41.683Z,1016.69
2016-12-25T00:03:07.806Z,1016.51
2016-12-25T00:03:33.905Z,1016.55
2016-12-25T00:04:00.020Z,1016.55
2016-12-25T00:04:26.143Z,1016.57
2016-12-25T00:04:52.250Z,1016.42
2016-12-25T00:05:18.365Z,1016.46
2016-12-25T00:05:44.485Z,1016.44
2016-12-25T00:06:10.595Z,1016.52
2016-12-25T00:06:36.699Z,1016.5
2016-12-25T00:07:02.825Z,1016.38
2016-12-25T00:07:28.937Z,1016.48
2016-12-25T00:07:55.039Z,1016.41
2016-12-25T00:08:21.189Z,1016.45
2016-12-25T00:08:47.308Z,1016.43
2016-12-25T00:09:13.411Z,1016.45
2016-12-25T00:09:39.531Z,1016.46
2016-12-25T00:10:05.653Z,1016.51
2016-12-25T00:10:31.761Z,1016.46
2016-12-25T00:10:57.875Z,1016.5
2016-12-25T00:11:23.995Z,1016.49
2016-12-25T00:11:50.107Z,1016.47
2016-12-25T00:12:16.216Z,1016.54
2016-12-25T00:12:42.338Z,1016.55
2016-12-25T00:13:08.445Z,1016.52
2016-12-25T00:13:34.551Z,1016.59
2016-12-25T00:14:00.667Z,1016.61
2016-12-25T00:14:26.787Z,1016.64
2016-12-25T00:14:52.912Z,1016.61
2016-12-25T00:15:19.012Z,1016.53
2016-12-25T00:15:45.126Z,1016.57
2016-12-25T00:16:11.243Z,1016.52
2016-12-25T00:16:37.357Z,1016.61
2016-12-25T00:17:03.463Z,1016.56
2016-12-25T00:17:29.583Z,1016.51
2016-12-25T00:17:55.698Z,1016.55
2016-12-25T00:18:21.811Z,1016.45
2016-12-25T00:18:47.930Z,1016.5
2016-12-25T00:19:14.042Z,1016.59
2016-12-25T00:19:40.162Z,1016.51
2016-12-25T00:20:06.273Z,1016.57
2016-12-25T00:20:32.377Z,1016.61
2016-12-25T00:20:58.505Z,1016.55
2016-12-25T00:21:24.612Z,1016.54
2016-12-25T00:21:50.724Z,1016.5
2016-12-25T00:22:16.843Z,1016.52
2016-12-25T00:22:42.962Z,1016.53
2016-12-25T00:23:09.068Z,1016.58
2016-12-25T00:23:35.187Z,1016.57
2016-12-25T00:24:01.304Z,1016.62
2016-12-25T00:24:27.410Z,1016.63
2016-12-25T00:24:53.526Z,1016.47
2016-12-25T00:25:19.630Z,1016.55
2016-12-25T00:25:45.755Z,1016.53
2016-12-25T00:26:11.870Z,1016.7
2016-12-25T00:26:37.973Z,1016.59
2016-12-25T00:27:04.094Z,1016.62
2016-12-25T00:27:30.211Z,1016.66
2016-12-25T00:27:56.316Z,1016.55
2016-12-25T00:28:22.435Z,1016.59
2016-12-25T00:28:48.559Z,1016.53
2016-12-25T00:29:14.663Z,1016.5
2016-12-25T00:29:40.778Z,1016.42
2016-12-25T00:30:06.901Z,1016.58
2016-12-25T00:30:33.008Z,1016.61
2016-12-25T00:30:59.131Z,1016.55
2016-12-25T00:31:25.235Z,1016.43
2016-12-25T00:31:51.358Z,1016.43
2016-12-25T00:32:17.477Z,1016.59
2016-12-25T00:32:43.587Z,1016.55
2016-12-25T00:33:09.714Z,1016.6
2016-12-25T00:33:35.830Z,1016.57
2016-12-25T00:34:01.937Z,1016.59
2016-12-25T00:34:28.041Z,1016.61
2016-12-25T00:34:54.169Z,1016.62
2016-12-25T00:35:20.313Z,1016.6
2016-12-25T00:35:46.426Z,1016.57
2016-12-25T00:36:12.543Z,1016.67
2016-12-25T00:36:38.645Z,1016.76
2016-12-25T00:37:04.767Z,1016.62
2016-12-25T00:37:30.878Z,1016.72
2016-12-25T00:37:56.985Z,1016.61
2016-12-25T00:38:23.110Z,1016.61
2016-12-25T00:38:49.218Z,1016.7
2016-12-25T00:39:15.324Z,1016.52
2016-12-25T00:39:41.445Z,1016.6
2016-12-25T00:40:07.561Z,1016.62
2016-12-25T00:40:33.676Z,1016.66
2016-12-25T00:40:59.790Z,1016.65
2016-12-25T00:41:25.907Z,1016.61
2016-12-25T00:41:52.022Z,1016.61
2016-12-25T00:42:18.135Z,1016.51
2016-12-25T00:42:44.269Z,1016.55
2016-12-25T00:43:10.388Z,1016.56
2016-12-25T00:43:36.502Z,1016.51
2016-12-25T00:44:02.608Z,1016.53
2016-12-25T00:44:28.731Z,1016.54
2016-12-25T00:44:54.855Z,1016.61
2016-12-25T00:45:20.955Z,1016.57
2016-12-25T00:45:47.069Z,1016.65
2016-12-25T00:46:13.194Z,1016.6
2016-12-25T00:46:39.306Z,1016.67
2016-12-25T00:47:05.417Z,1016.57
2016-12-25T00:47:31.528Z,1016.65
2016-12-25T00:47:57.648Z,1016.48
2016-12-25T00:48:23.769Z,1016.62
2016-12-25T00:48:49.867Z,1016.55
2016-12-25T00:49:15.989Z,1016.5
2016-12-25T00:49:42.108Z,1016.57
2016-12-25T00:50:08.218Z,1016.59
2016-12-25T00:50:34.326Z,1016.59
2016-12-25T00:51:00.488Z,1016.56
2016-12-25T00:51:26.599Z,1016.52
2016-12-25T00:51:52.707Z,1016.59
2016-12-25T00:52:18.843Z,1016.57
2016-12-25T00:52:44.974Z,1016.56
2016-12-25T00:53:11.087Z,1016.59
2016-12-25T00:53:37.211Z,1016.58
2016-12-25T00:54:03.324Z,1016.64
2016-12-25T00:54:29.427Z,1016.56
2016-12-25T00:54:55.546Z,1016.54
2016-12-25T00:55:21.673Z,1016.59
2016-12-25T00:55:47.770Z,1016.58
2016-12-25T00:56:13.890Z,1016.53
2016-12-25T00:56:40.017Z,1016.59
2016-12-25T00:57:06.119Z,1016.44
2016-12-25T00:57:32.246Z,1016.54
2016-12-25T00:57:58.384Z,1016.56
2016-12-25T00:58:24.499Z,1016.56
2016-12-25T00:58:50.618Z,1016.54
2016-12-25T00:59:16.716Z,1016.56
2016-12-25T00:59:42.835Z,1016.59
2016-12-25T01:00:08.959Z,1016.59
2016-12-25T01:00:35.062Z,1016.58
2016-12-25T01:01:01.175Z,1016.54
2016-12-25T01:01:27.297Z,1016.61
2016-12-25T01:01:53.404Z,1016.45
2016-12-25T01:02:19.506Z,1016.62
2016-12-25T01:02:45.633Z,1016.55
2016-12-25T01:03:11.748Z,1016.55
2016-12-25T01:03:37.859Z,1016.61
2016-12-25T01:04:03.980Z,1016.59
2016-12-25T01:04:30.087Z,1016.5
2016-12-25T01:04:56.212Z,1016.52
2016-12-25T01:05:22.320Z,1016.57
2016-12-25T01:05:48.423Z,1016.53
2016-12-25T01:06:14.552Z,1016.55
2016-12-25T01:06:40.666Z,1016.62
2016-12-25T01:07:06.770Z,1016.54
2016-12-25T01:07:32.893Z,1016.52
2016-12-25T01:07:59.012Z,1016.6
2016-12-25T01:08:25.116Z,1016.62
2016-12-25T01:08:51.240Z,1016.59
2016-12-25T01:09:17.357Z,1016.57
2016-12-25T01:09:43.470Z,1016.55
2016-12-25T01:10:09.581Z,1016.56
2016-12-25T01:10:35.682Z,1016.55
2016-12-25T01:11:01.808Z,1016.58
2016-12-25T01:11:27.920Z,1016.58
2016-12-25T01:11:54.027Z,1016.66
2016-12-25T01:12:20.149Z,1016.63
2016-12-25T01:12:46.280Z,1016.71
2016-12-25T01:13:12.382Z,1016.7
2016-12-25T01:13:38.495Z,1016.72
2016-12-25T01:14:04.619Z,1016.58
2016-12-25T01:14:30.726Z,1016.66
2016-12-25T01:14:56.842Z,1016.67
2016-12-25T01:15:22.953Z,1016.62
2016-12-25T01:15:49.068Z,1016.66
2016-12-25T01:16:15.187Z,1016.68
2016-12-25T01:16:41.292Z,1016.72
2016-12-25T01:17:07.406Z,1016.69
2016-12-25T01:17:33.534Z,1016.63
2016-12-25T01:17:59.634Z,1016.71
2016-12-25T01:18:25.744Z,1016.67
2016-12-25T01:18:51.868Z,1016.63
2016-12-25T01:19:17.977Z,1016.6
2016-12-25T01:19:44.078Z,1016.6
2016-12-25T01:20:10.211Z,1016.69
2016-12-25T01:20:36.317Z,1016.59
2016-12-25T01:21:02.433Z,1016.61
2016-12-25T01:21:28.542Z,1016.61
2016-12-25T01:21:54.656Z,1016.6
2016-12-25T01:22:20.782Z,1016.63
2016-12-25T01:22:46.888Z,1016.5
2016-12-25T01:23:12.990Z,1016.58
2016-12-25T01:23:39.116Z,1016.6
2016-12-25T01:24:05.234Z,1016.59
2016-12-25T01:24:31.340Z,1016.49
2016-12-25T01:24:57.465Z,1016.54
2016-12-25T01:25:23.581Z,1016.46
2016-12-25T01:25:49.684Z,1016.48
2016-12-25T01:26:15.805Z,1016.48
2016-12-25T01:26:41.918Z,1016.47
2016-12-25T01:27:08.036Z,1016.6
2016-12-25T01:27:34.147Z,1016.54
2016-12-25T01:28:00.255Z,1016.48
2016-12-25T01:28:26.380Z,1016.44
2016-12-25T01:28:52.498Z,1016.4
2016-12-25T01:29:18.604Z,1016.53
2016-12-25T01:29:44.725Z,1016.48
2016-12-25T01:30:10.845Z,1016.5
2016-12-25T01:30:36.946Z,1016.51
2016-12-25T01:31:03.061Z,1016.43
2016-12-25T01:31:29.182Z,1016.48
2016-12-25T01:31:55.292Z,1016.54
2016-12-25T01:32:21.403Z,1016.43
2016-12-25T01:32:47.515Z,1016.46
2016-12-25T01:33:13.637Z,1016.43
2016-12-25T01:33:39.759Z,1016.49
2016-12-25T01:34:05.859Z,1016.49
2016-12-25T01:34:31.973Z,1016.51
2016-12-25T01:34:58.097Z,1016.58
2016-12-25T01:35:24.206Z,1016.57
2016-12-25T01:35:50.322Z,1016.44
2016-12-25T01:36:16.440Z,1016.55
2016-12-25T01:36:42.549Z,1016.61
2016-12-25T01:37:08.657Z,1016.54
2016-12-25T01:37:34.789Z,1016.51
2016-12-25T01:38:00.901Z,1016.47
2016-12-25T01:38:27.012Z,1016.5
2016-12-25T01:38:53.133Z,1016.45
2016-12-25T01:39:19.250Z,1016.43
2016-12-25T01:39:45.355Z,1016.38
2016-12-25T01:40:11.477Z,1016.29
2016-12-25T01:40:37.601Z,1016.37
2016-12-25T01:41:03.705Z,1016.41
2016-12-25T01:41:29.821Z,1016.41
2016-12-25T01:41:55.950Z,1016.39
2016-12-25T01:42:22.053Z,1016.28
2016-12-25T01:42:48.165Z,1016.26
2016-12-25T01:43:14.282Z,1016.32
2016-12-25T01:43:40.401Z,1016.36
2016-12-25T01:44:06.518Z,1016.35
2016-12-25T01:44:32.623Z,1016.33
2016-12-25T01:44:58.740Z,1016.36
2016-12-25T01:45:24.865Z,1016.26
2016-12-25T01:45:50.970Z,1016.25
2016-12-25T01:46:17.084Z,1016.3
2016-12-25T01:46:43.203Z,1016.32
2016-12-25T01:47:09.310Z,1016.33
2016-12-25T01:47:35.425Z,1016.33
2016-12-25T01:48:01.543Z,1016.37
2016-12-25T01:48:27.657Z,1016.32
2016-12-25T01:48:53.776Z,1016.37
2016-12-25T01:49:19.884Z,1016.36
2016-12-25T01:49:45.996Z,1016.43
2016-12-25T01:50:12.118Z,1016.4
2016-12-25T01:50:38.229Z,1016.31
2016-12-25T01:51:04.331Z,1016.28
2016-12-25T01:51:30.459Z,1016.36
2016-12-25T01:51:56.570Z,1016.43
2016-12-25T01:52:22.681Z,1016.42
2016-12-25T01:52:48.807Z,1016.42
2016-12-25T01:53:14.916Z,1016.33
2016-12-25T01:53:41.021Z,1016.32
2016-12-25T01:54:07.145Z,1016.23
2016-12-25T01:54:33.255Z,1016.34
2016-12-25T01:54:59.374Z,1016.29
2016-12-25T01:55:25.483Z,1016.34
2016-12-25T01:55:51.590Z,1016.3
2016-12-25T01:56:17.716Z,1016.31
2016-12-25T01:56:43.838Z,1016.27
2016-12-25T01:57:09.939Z,1016.38
2016-12-25T01:57:36.057Z,1016.42
2016-12-25T01:58:02.176Z,1016.34
2016-12-25T01:58:28.280Z,1016.43
2016-12-25T01:58:54.398Z,1016.36
2016-12-25T01:59:20.519Z,1016.39
2016-12-25T01:59:46.624Z,1016.45
2016-12-25T02:00:12.745Z,1016.41
2016-12-25T02:00:38.849Z,1016.46
2016-12-25T02:01:04.999Z,1016.38
2016-12-25T02:01:31.129Z,1016.45
2016-12-25T02:01:57.228Z,1016.45
2016-12-25T02:02:23.347Z,1016.41
2016-12-25T02:02:49.471Z,1016.42
2016-12-25T02:03:15.580Z,1016.38
2016-12-25T02:03:41.692Z,1016.49
2016-12-25T02:04:07.815Z,1016.46
2016-12-25T02:04:33.925Z,1016.38
2016-12-25T02:05:00.026Z,1016.31
2016-12-25T02:05:26.147Z,1016.42
2016-12-25T02:05:52.264Z,1016.37
2016-12-25T02:06:18.387Z,1016.31
2016-12-25T02:06:44.491Z,1016.39
2016-12-25T02:07:10.597Z,1016.4
2016-12-25T02:07:36.724Z,1016.4
2016-12-25T02:08:02.833Z,1016.4
2016-12-25T02:08:28.942Z,1016.41
2016-12-25T02:08:55.067Z,1016.27
2016-12-25T02:09:21.175Z,1016.39
2016-12-25T02:09:47.282Z,1016.38
2016-12-25T02:10:13.409Z,1016.44
2016-12-25T02:10:39.553Z,1016.3
2016-12-25T02:11:05.644Z,1016.38
2016-12-25T02:11:31.757Z,1016.35
2016-12-25T02:11:57.860Z,1016.39
2016-12-25T02:12:23.991Z,1016.33
2016-12-25T02:12:50.101Z,1016.33
2016-12-25T02:13:16.205Z,1016.38
2016-12-25T02:13:42.332Z,1016.35
2016-12-25T02:14:08.478Z,1016.29
2016-12-25T02:14:34.616Z,1016.34
2016-12-25T02:15:00.732Z,1016.45
2016-12-25T02:15:26.856Z,1016.28
2016-12-25T02:15:52.951Z,1016.28
2016-12-25T02:16:19.067Z,1016.34
2016-12-25T02:16:45.175Z,1016.35
2016-12-25T02:17:11.300Z,1016.22
2016-12-25T02:17:37.416Z,1016.32
2016-12-25T02:18:03.527Z,1016.33
2016-12-25T02:18:29.645Z,1016.31
2016-12-25T02:18:55.774Z,1016.31
2016-12-25T02:19:21.875Z,1016.34
2016-12-25T02:19:47.989Z,1016.24
2016-12-25T02:20:14.110Z,1016.27
2016-12-25T02:20:40.216Z,1016.25
2016-12-25T02:21:06.328Z,1016.22
2016-12-25T02:21:32.454Z,1016.28
2016-12-25T02:21:58.560Z,1016.24
2016-12-25T02:22:24.669Z,1016.34
2016-12-25T02:22:50.797Z,1016.23
2016-12-25T02:23:16.906Z,1016.19
2016-12-25T02:23:43.014Z,1016.22
2016-12-25T02:24:09.135Z,1016.2
2016-12-25T02:24:35.248Z,1016.24
2016-12-25T02:25:01.357Z,1016.26
2016-12-25T02:25:27.478Z,1016.17
2016-12-25T02:25:53.595Z,1016.09
2016-12-25T02:26:19.701Z,1016.17
2016-12-25T02:26:45.815Z,1016.16
2016-12-25T02:27:11.941Z,1016.13
2016-12-25T02:27:38.046Z,1016.14
2016-12-25T02:28:04.160Z,1016.06
2016-12-25T02:28:30.271Z,1016.13
2016-12-25T02:28:56.395Z,1016.04
2016-12-25T02:29:22.520Z,1016.07
2016-12-25T02:29:48.626Z,1016.01
2016-12-25T02:30:14.742Z,1015.99
2016-12-25T02:30:40.868Z,1016.05
2016-12-25T02:31:06.975Z,1016.06
2016-12-25T02:31:33.089Z,1015.97
2016-12-25T02:31:59.206Z,1015.96
2016-12-25T02:32:25.316Z,1015.93
2016-12-25T02:32:51.417Z,1015.95
2016-12-25T02:33:17.542Z,1015.96
2016-12-25T02:33:43.656Z,1015.9
2016-12-25T02:34:09.773Z,1015.97
2016-12-25T02:34:35.886Z,1015.91
2016-12-25T02:35:02.002Z,1015.96
2016-12-25T02:35:28.126Z,1015.85
2016-12-25T02:35:54.233Z,1015.88
2016-12-25T02:36:20.341Z,1015.83
2016-12-25T02:36:46.468Z,1015.81
2016-12-25T02:37:12.577Z,1015.83
2016-12-25T02:37:38.678Z,1015.83
2016-12-25T02:38:04.804Z,1015.82
2016-12-25T02:38:30.923Z,1015.69
2016-12-25T02:38:57.034Z,1015.77
2016-12-25T02:39:23.142Z,1015.78
2016-12-25T02:39:49.255Z,1015.83
2016-12-25T02:40:15.375Z,1015.74
2016-12-25T02:40:41.485Z,1015.89
2016-12-25T02:41:07.592Z,1015.87
2016-12-25T02:41:33.715Z,1015.89
2016-12-25T02:41:59.829Z,1015.89
2016-12-25T02:42:25.940Z,1015.9
2016-12-25T02:42:52.056Z,1015.86
2016-12-25T02:43:18.181Z,1015.9
2016-12-25T02:43:44.278Z,1015.92
2016-12-25T02:44:10.397Z,1015.93
2016-12-25T02:44:36.506Z,1015.94
2016-12-25T02:45:02.629Z,1015.89
2016-12-25T02:45:28.747Z,1015.93
2016-12-25T02:45:54.852Z,1015.88
2016-12-25T02:46:20.973Z,1015.95
2016-12-25T02:46:47.089Z,1016
2016-12-25T02:47:13.195Z,1015.94
2016-12-25T02:47:39.313Z,1015.98
2016-12-25T02:48:05.436Z,1015.95
2016-12-25T02:48:31.540Z,1015.97
2016-12-25T02:48:57.655Z,1015.95
2016-12-25T02:49:23.775Z,1015.96
2016-12-25T02:49:49.883Z,1015.89
2016-12-25T02:50:16.008Z,1015.95
2016-12-25T02:50:42.110Z,1015.94
2016-12-25T02:51:08.218Z,1016
2016-12-25T02:51:34.343Z,1015.96
2016-12-25T02:52:00.451Z,1015.91
2016-12-25T02:52:26.568Z,1015.98
2016-12-25T02:52:52.685Z,1015.92
2016-12-25T02:53:18.796Z,1015.96
2016-12-25T02:53:44.900Z,1015.91
2016-12-25T02:54:11.027Z,1015.88
2016-12-25T02:54:37.136Z,1016
2016-12-25T02:55:03.245Z,1015.98
2016-12-25T02:55:29.368Z,1015.98
2016-12-25T02:55:55.475Z,1016.02
2016-12-25T02:56:21.599Z,1015.93
2016-12-25T02:56:47.704Z,1015.96
2016-12-25T02:57:13.814Z,1016.1
2016-12-25T02:57:39.933Z,1016.08
2016-12-25T02:58:06.048Z,1016.04
2016-12-25T02:58:32.155Z,1016.03
2016-12-25T02:58:58.281Z,1016.03
2016-12-25T02:59:24.403Z,1015.94
2016-12-25T02:59:50.510Z,1015.9
2016-12-25T03:00:16.629Z,1015.91
2016-12-25T03:00:42.751Z,1016
2016-12-25T03:01:08.866Z,1016
2016-12-25T03:01:34.976Z,1015.87
2016-12-25T03:02:01.080Z,1015.89
2016-12-25T03:02:27.204Z,1015.89
2016-12-25T03:02:53.316Z,1015.87
2016-12-25T03:03:19.425Z,1015.77
2016-12-25T03:03:45.542Z,1015.93
2016-12-25T03:04:11.693Z,1015.86
2016-12-25T03:04:37.788Z,1015.77
2016-12-25T03:05:03.901Z,1015.83
2016-12-25T03:05:30.021Z,1015.87
2016-12-25T03:05:56.121Z,1015.74
2016-12-25T03:06:22.236Z,1015.74
2016-12-25T03:06:48.358Z,1015.79
2016-12-25T03:07:14.469Z,1015.7
2016-12-25T03:07:40.569Z,1015.82
2016-12-25T03:08:06.695Z,1015.79
2016-12-25T03:08:32.807Z,1015.82
2016-12-25T03:08:58.919Z,1015.85
2016-12-25T03:09:25.038Z,1015.81
2016-12-25T03:09:51.154Z,1015.74
2016-12-25T03:10:17.258Z,1015.72
2016-12-25T03:10:43.374Z,1015.76
2016-12-25T03:11:09.495Z,1015.73
2016-12-25T03:11:35.600Z,1015.68
2016-12-25T03:12:01.712Z,1015.71
2016-12-25T03:12:27.823Z,1015.66
2016-12-25T03:12:53.948Z,1015.6
2016-12-25T03:13:20.069Z,1015.64
2016-12-25T03:13:46.171Z,1015.63
2016-12-25T03:14:12.289Z,1015.57
2016-12-25T03:14:38.409Z,1015.63
2016-12-25T03:15:04.519Z,1015.67
2016-12-25T03:15:30.634Z,1015.65
2016-12-25T03:15:56.762Z,1015.66
2016-12-25T03:16:22.863Z,1015.58
2016-12-25T03:16:48.976Z,1015.68
2016-12-25T03:17:15.092Z,1015.57
2016-12-25T03:17:41.200Z,1015.61
2016-12-25T03:18:07.326Z,1015.57
2016-12-25T03:18:33.422Z,1015.55
2016-12-25T03:18:59.540Z,1015.62
2016-12-25T03:19:25.657Z,1015.58
2016-12-25T03:19:51.766Z,1015.57
2016-12-25T03:20:17.882Z,1015.59
2016-12-25T03:20:44.002Z,1015.47
2016-12-25T03:21:10.107Z,1015.58
2016-12-25T03:21:36.215Z,1015.58
2016-12-25T03:22:02.371Z,1015.62
2016-12-25T03:22:28.479Z,1015.61
2016-12-25T03:22:54.584Z,1015.67
2016-12-25T03:23:20.705Z,1015.62
2016-12-25T03:23:46.811Z,1015.57
2016-12-25T03:24:12.939Z,1015.66
2016-12-25T03:24:39.072Z,1015.67
2016-12-25T03:25:05.181Z,1015.72
2016-12-25T03:25:31.302Z,1015.7
2016-12-25T03:25:57.416Z,1015.74
2016-12-25T03:26:23.521Z,1015.72
2016-12-25T03:26:49.645Z,1015.57
2016-12-25T03:27:15.759Z,1015.66
2016-12-25T03:27:41.862Z,1015.67
2016-12-25T03:28:07.981Z,1015.71
2016-12-25T03:28:34.103Z,1015.79
2016-12-25T03:29:00.205Z,1015.68
2016-12-25T03:29:26.320Z,1015.73
2016-12-25T03:29:52.423Z,1015.7
2016-12-25T03:30:18.550Z,1015.75
2016-12-25T03:30:44.667Z,1015.67
2016-12-25T03:31:10.778Z,1015.63
2016-12-25T03:31:36.895Z,1015.7
2016-12-25T03:32:03.018Z,1015.37
2016-12-25T03:32:29.120Z,1015.56
2016-12-25T03:32:55.229Z,1015.51
2016-12-25T03:33:21.351Z,1015.46
2016-12-25T03:33:47.458Z,1015.49
2016-12-25T03:34:13.574Z,1015.55
2016-12-25T03:34:39.682Z,1015.54
2016-12-25T03:35:05.800Z,1015.61
2016-12-25T03:35:31.928Z,1015.59
2016-12-25T03:35:58.032Z,1015.6
2016-12-25T03:36:24.149Z,1015.59
2016-12-25T03:36:50.265Z,1015.58
2016-12-25T03:37:16.379Z,1015.46
2016-12-25T03:37:42.482Z,1015.49
2016-12-25T03:38:08.609Z,1015.56
2016-12-25T03:38:34.719Z,1015.53
2016-12-25T03:39:00.826Z,1015.53
2016-12-25T03:39:26.977Z,1015.52
2016-12-25T03:39:53.087Z,1015.52
2016-12-25T03:40:19.205Z,1015.54
2016-12-25T03:40:45.312Z,1015.46
2016-12-25T03:41:11.422Z,1015.56
2016-12-25T03:41:37.543Z,1015.57
2016-12-25T03:42:03.647Z,1015.62
2016-12-25T03:42:29.753Z,1015.51
2016-12-25T03:42:55.885Z,1015.53
2016-12-25T03:43:21.993Z,1015.56
2016-12-25T03:43:48.098Z,1015.4
2016-12-25T03:44:14.224Z,1015.45
2016-12-25T03:44:40.336Z,1015.41
2016-12-25T03:45:06.445Z,1015.5
2016-12-25T03:45:32.562Z,1015.42
2016-12-25T03:45:58.665Z,1015.41
2016-12-25T03:46:25.001Z,1015.4
2016-12-25T03:46:51.114Z,1015.39
2016-12-25T03:47:17.218Z,1015.4
2016-12-25T03:47:43.335Z,1015.35
2016-12-25T03:48:09.453Z,1015.47
2016-12-25T03:48:35.563Z,1015.44
2016-12-25T03:49:01.680Z,1015.41
2016-12-25T03:49:27.797Z,1015.46
2016-12-25T03:49:53.901Z,1015.42
2016-12-25T03:50:20.018Z,1015.37
2016-12-25T03:50:46.142Z,1015.45
2016-12-25T03:51:12.248Z,1015.49
2016-12-25T03:51:38.356Z,1015.53
2016-12-25T03:52:04.478Z,1015.49
2016-12-25T03:52:30.584Z,1015.53
2016-12-25T03:52:56.687Z,1015.4
2016-12-25T03:53:22.817Z,1015.34
2016-12-25T03:53:48.932Z,1015.37
2016-12-25T03:54:15.041Z,1015.31
2016-12-25T03:54:41.161Z,1015.33
2016-12-25T03:55:07.277Z,1015.26
2016-12-25T03:55:33.386Z,1015.28
2016-12-25T03:55:59.504Z,1015.18
2016-12-25T03:56:25.632Z,1015.13
2016-12-25T03:56:51.740Z,1015.25
2016-12-25T03:57:17.852Z,1015.15
2016-12-25T03:57:43.965Z,1015.17
2016-12-25T03:58:10.086Z,1015.14
2016-12-25T03:58:36.208Z,1015.18
2016-12-25T03:59:02.314Z,1015.13
2016-12-25T03:59:28.432Z,1015.07
2016-12-25T03:59:54.553Z,1015.05
2016-12-25T04:00:20.659Z,1015.11
2016-12-25T04:00:46.781Z,1015.12
2016-12-25T04:01:12.900Z,1015
2016-12-25T04:01:39.002Z,1015.06
2016-12-25T04:02:05.111Z,1014.98
2016-12-25T04:02:31.225Z,1015.04
2016-12-25T04:02:57.339Z,1015.04
2016-12-25T04:03:23.463Z,1015.04
2016-12-25T04:03:49.561Z,1015.04
2016-12-25T04:04:15.675Z,1015.12
2016-12-25T04:04:41.851Z,1015.1
2016-12-25T04:05:07.952Z,1015.1
2016-12-25T04:05:34.066Z,1015.17
2016-12-25T04:06:00.183Z,1015.29
2016-12-25T04:06:26.296Z,1015.37
2016-12-25T04:06:52.397Z,1015.34
2016-12-25T04:07:18.525Z,1015.27
2016-12-25T04:07:44.636Z,1015.35
2016-12-25T04:08:10.755Z,1015.23
2016-12-25T04:08:36.862Z,1015.33
2016-12-25T04:09:02.970Z,1015.2
2016-12-25T04:09:29.095Z,1015.15
2016-12-25T04:09:55.204Z,1015.09
2016-12-25T04:10:21.304Z,1015.13
2016-12-25T04:10:47.429Z,1015.12
2016-12-25T04:11:13.542Z,1015.18
2016-12-25T04:11:39.648Z,1015.22
2016-12-25T04:12:05.768Z,1015.27
2016-12-25T04:12:31.887Z,1015.24
2016-12-25T04:12:57.988Z,1015.23
2016-12-25T04:13:24.112Z,1015.21
2016-12-25T04:13:50.215Z,1015.21
2016-12-25T04:14:16.345Z,1015.34
2016-12-25T04:14:42.460Z,1015.22
2016-12-25T04:15:08.563Z,1015.25
2016-12-25T04:15:34.682Z,1015.35
2016-12-25T04:16:00.795Z,1015.27
2016-12-25T04:16:26.903Z,1015.2
2016-12-25T04:16:53.047Z,1015.23
2016-12-25T04:17:19.171Z,1015.25
2016-12-25T04:17:45.274Z,1015.33
2016-12-25T04:18:11.392Z,1015.27
2016-12-25T04:18:37.513Z,1015.35
2016-12-25T04:19:03.624Z,1015.33
2016-12-25T04:19:29.746Z,1015.27
2016-12-25T04:19:55.873Z,1015.31
2016-12-25T04:20:21.989Z,1015.38
2016-12-25T04:20:48.108Z,1015.26
2016-12-25T04:21:14.212Z,1015.3
2016-12-25T04:21:40.330Z,1015.28
2016-12-25T04:22:06.451Z,1015.37
2016-12-25T04:22:32.555Z,1015.28
2016-12-25T04:22:58.668Z,1015.31
2016-12-25T04:23:24.791Z,1015.39
2016-12-25T04:23:50.902Z,1015.42
2016-12-25T04:24:17.010Z,1015.09
2016-12-25T04:24:43.122Z,1015.26
2016-12-25T04:25:09.238Z,1015.25
2016-12-25T04:25:35.364Z,1015.27
2016-12-25T04:26:01.465Z,1015.3
2016-12-25T04:26:27.579Z,1015.28
2016-12-25T04:26:53.696Z,1015.32
2016-12-25T04:27:19.809Z,1015.33
2016-12-25T04:27:45.911Z,1015.28
2016-12-25T04:28:12.032Z,1015.2
2016-12-25T04:28:38.144Z,1015.18
2016-12-25T04:29:04.251Z,1015.19
2016-12-25T04:29:30.371Z,1015.15
2016-12-25T04:29:56.486Z,1015.2
2016-12-25T04:30:22.602Z,1015.28
2016-12-25T04:30:48.711Z,1015.31
2016-12-25T04:31:14.812Z,1015.24
2016-12-25T04:31:40.938Z,1015.34
2016-12-25T04:32:07.054Z,1015.32
2016-12-25T04:32:33.160Z,1015.17
2016-12-25T04:32:59.281Z,1015.27
2016-12-25T04:33:25.401Z,1015.29
2016-12-25T04:33:51.505Z,1015.28
2016-12-25T04:34:17.625Z,1015.2
2016-12-25T04:34:43.752Z,1015.12
2016-12-25T04:35:09.853Z,1015.19
2016-12-25T04:35:35.964Z,1015.22
2016-12-25T04:36:02.088Z,1015.22
2016-12-25T04:36:28.191Z,1015.14
2016-12-25T04:36:54.303Z,1015.14
2016-12-25T04:37:20.423Z,1015.21
2016-12-25T04:37:46.531Z,1015.21
2016-12-25T04:38:12.640Z,1015.3
2016-12-25T04:38:38.763Z,1015.2
2016-12-25T04:39:04.877Z,1015.25
2016-12-25T04:39:30.977Z,1015.27
2016-12-25T04:39:57.090Z,1015.26
2016-12-25T04:40:23.409Z,1015.25
2016-12-25T04:40:49.515Z,1015.24
2016-12-25T04:41:15.636Z,1015.15
2016-12-25T04:41:41.737Z,1015.22
2016-12-25T04:42:07.863Z,1015.25
2016-12-25T04:42:33.981Z,1015.23
2016-12-25T04:43:00.084Z,1015.28
2016-12-25T04:43:26.205Z,1015.24
2016-12-25T04:43:52.315Z,1015.2
2016-12-25T04:44:18.455Z,1015.2
2016-12-25T04:44:44.573Z,1015.2
2016-12-25T04:45:10.698Z,1015.22
2016-12-25T04:45:36.800Z,1015.25
2016-12-25T04:46:02.915Z,1015.26
2016-12-25T04:46:29.032Z,1015.25
2016-12-25T04:46:55.134Z,1015.16
2016-12-25T04:47:21.252Z,1015.28
2016-12-25T04:47:47.354Z,1015.25
2016-12-25T04:48:13.475Z,1015.29
2016-12-25T04:48:39.588Z,1015.23
2016-12-25T04:49:05.696Z,1015.22
2016-12-25T04:49:31.810Z,1015.29
2016-12-25T04:49:57.931Z,1015.26
2016-12-25T04:50:24.034Z,1015.23
2016-12-25T04:50:50.147Z,1015.17
2016-12-25T04:51:16.271Z,1015.21
2016-12-25T04:51:42.385Z,1015.2
2016-12-25T04:52:08.493Z,1015.26
2016-12-25T04:52:34.608Z,1015.21
2016-12-25T04:53:00.725Z,1015.24
2016-12-25T04:53:26.850Z,1015.27
2016-12-25T04:53:52.955Z,1015.29
2016-12-25T04:54:19.069Z,1015.29
2016-12-25T04:54:45.183Z,1015.25
2016-12-25T04:55:11.295Z,1015.21
2016-12-25T04:55:37.400Z,1015.24
2016-12-25T04:56:03.524Z,1015.25
2016-12-25T04:56:29.632Z,1015.28
2016-12-25T04:56:55.734Z,1015.24
2016-12-25T04:57:21.855Z,1015.24
2016-12-25T04:57:47.970Z,1015.25
2016-12-25T04:58:14.076Z,1015.17
2016-12-25T04:58:40.194Z,1015.11
2016-12-25T04:59:06.321Z,1015.06
2016-12-25T04:59:32.422Z,1015.1
2016-12-25T04:59:58.534Z,1015.07
2016-12-25T05:00:24.652Z,1015.1
2016-12-25T05:00:50.761Z,1015.15
2016-12-25T05:01:16.878Z,1015.16
2016-12-25T05:01:43.002Z,1015.2
2016-12-25T05:02:09.109Z,1015.17
2016-12-25T05:02:35.211Z,1015.16
2016-12-25T05:03:01.337Z,1015.16
2016-12-25T05:03:27.481Z,1015.16
2016-12-25T05:03:53.604Z,1015.19
2016-12-25T05:04:19.704Z,1015.19
2016-12-25T05:04:45.812Z,1015.18
2016-12-25T05:05:11.935Z,1015.16
2016-12-25T05:05:38.050Z,1015.19
2016-12-25T05:06:04.155Z,1015.14
2016-12-25T05:06:30.280Z,1015.13
2016-12-25T05:06:56.388Z,1015.17
2016-12-25T05:07:22.488Z,1015.14
2016-12-25T05:07:48.610Z,1015.2
2016-12-25T05:08:14.726Z,1015.23
2016-12-25T05:08:40.836Z,1015.22
2016-12-25T05:09:06.956Z,1015.17
2016-12-25T05:09:33.059Z,1015.21
2016-12-25T05:09:59.192Z,1015.16
2016-12-25T05:10:25.306Z,1015.22
2016-12-25T05:10:51.410Z,1015.14
2016-12-25T05:11:17.531Z,1015.08
2016-12-25T05:11:43.641Z,1015.09
2016-12-25T05:12:09.750Z,1015.05
2016-12-25T05:12:35.870Z,1015.05
2016-12-25T05:13:01.992Z,1014.94
2016-12-25T05:13:28.088Z,1015.06
2016-12-25T05:13:54.203Z,1015
2016-12-25T05:14:20.360Z,1015.12
2016-12-25T05:14:46.468Z,1015.15
2016-12-25T05:15:12.588Z,1015.12
2016-12-25T05:15:38.692Z,1015.06
2016-12-25T05:16:04.809Z,1015.05
2016-12-25T05:16:30.930Z,1015.07
2016-12-25T05:16:57.037Z,1015.02